CheckWX is a tool to help pilots better visualize weather data.  It is not intended as a substitute for an official pre-flight weather briefing.

02:17:49 UTC

LFPO TAF
Paris-Orly Airport
Paris, France
TAF LFPO 072300Z 0800/0906 22008KT 9999 BKN014 PROB30 TEMPO 0800/0806 4000 -DZ BKN004 BECMG 0803/0806 22015G30KT BKN010 TEMPO 0807/0812 4000 RA SCT014TCU BECMG 0812/0814 25012KT SCT020 SCT040 TEMPO 0818/0906 4000 SHRA SCT025TCU

Dec-8@
00:00 UTC

Dec-8 @ 00:00 UTC

Dec-8@
03:00 UTC

Dec-8 @ 03:00 UTC

TAF LFPO 072300Z 0800/0906 22008KT 9999 BKN014
Wind
  • 220° at 8 KTS
Cloud Levels
  • Broken at 1,400' AGL

Dec-8@
00:00 UTC

Dec-8 @ 00:00 UTC

Dec-8@
06:00 UTC

Dec-8 @ 06:00 UTC

PROB30 TEMPO 0800/0806 4000 -DZ BKN004

Temporary - 30% Likelihood

Temporary - 30% Likelihood during this time.

Conditions
Light Drizzle
Cloud Levels
  • Broken at 400' AGL

Dec-8@
03:00 UTC

Dec-8 @ 03:00 UTC

Dec-8@
12:00 UTC

Dec-8 @ 12:00 UTC

BECMG 0803/0806 22015G30KT BKN010

Becoming

Becoming Conditions expected by Sun, Dec 8, 2019 @ 06:00 UTC

Wind
  • 220° at 15 KTS
  • {Gusting to 30 KTS
Cloud Levels
  • Broken at 1,000' AGL

Dec-8@
07:00 UTC

Dec-8 @ 07:00 UTC

Dec-8@
12:00 UTC

Dec-8 @ 12:00 UTC

TEMPO 0807/0812 4000 RA SCT014TCU

Temporary

Temporary Changes expected for less than half the time period

Conditions
Rain
Cloud Levels
  • Scattered at 1,400' AGL

Dec-8@
12:00 UTC

Dec-8 @ 12:00 UTC

Dec-9@
06:00 UTC

Dec-9 @ 06:00 UTC

BECMG 0812/0814 25012KT SCT020 SCT040

Becoming

Becoming Conditions expected by Sun, Dec 8, 2019 @ 14:00 UTC

Wind
  • 250° at 12 KTS
Cloud Levels
  • Scattered at 2,000' AGL
  • Scattered at 4,000' AGL

Dec-8@
18:00 UTC

Dec-8 @ 18:00 UTC

Dec-9@
06:00 UTC

Dec-9 @ 06:00 UTC

TEMPO 0818/0906 4000 SHRA SCT025TCU

Temporary

Temporary Changes expected for less than half the time period

Conditions
Rain
Cloud Levels
  • Scattered at 2,500' AGL